sensor_id;sensor_type;location;lat;lon;timestamp;P1;durP1;ratioP1;P2;durP2;ratioP2
7899;SDS011;3995;50.856;4.404;2022-12-07T00:01:39;8.07;;;6.78;;
7899;SDS011;3995;50.856;4.404;2022-12-07T00:04:08;7.80;;;6.32;;
7899;SDS011;3995;50.856;4.404;2022-12-07T00:06:39;8.82;;;6.32;;
7899;SDS011;3995;50.856;4.404;2022-12-07T00:09:09;8.13;;;6.90;;
7899;SDS011;3995;50.856;4.404;2022-12-07T00:11:39;7.30;;;6.60;;
7899;SDS011;3995;50.856;4.404;2022-12-07T00:14:09;7.53;;;6.70;;
7899;SDS011;3995;50.856;4.404;2022-12-07T00:16:38;8.60;;;6.07;;
7899;SDS011;3995;50.856;4.404;2022-12-07T00:19:05;6.95;;;6.25;;
7899;SDS011;3995;50.856;4.404;2022-12-07T00:21:34;8.18;;;6.75;;
7899;SDS011;3995;50.856;4.404;2022-12-07T00:24:02;7.97;;;6.13;;
7899;SDS011;3995;50.856;4.404;2022-12-07T00:26:34;8.93;;;6.95;;
7899;SDS011;3995;50.856;4.404;2022-12-07T00:29:03;12.82;;;7.10;;
7899;SDS011;3995;50.856;4.404;2022-12-07T00:31:31;9.88;;;6.85;;
7899;SDS011;3995;50.856;4.404;2022-12-07T00:34:00;10.68;;;7.50;;
7899;SDS011;3995;50.856;4.404;2022-12-07T00:36:28;7.30;;;6.60;;
7899;SDS011;3995;50.856;4.404;2022-12-07T00:38:57;6.60;;;6.00;;
7899;SDS011;3995;50.856;4.404;2022-12-07T00:41:26;7.25;;;6.47;;
7899;SDS011;3995;50.856;4.404;2022-12-07T00:43:56;7.18;;;6.43;;
7899;SDS011;3995;50.856;4.404;2022-12-07T00:46:24;8.30;;;6.68;;
7899;SDS011;3995;50.856;4.404;2022-12-07T00:48:51;8.20;;;6.10;;
7899;SDS011;3995;50.856;4.404;2022-12-07T00:51:19;6.70;;;6.05;;
7899;SDS011;3995;50.856;4.404;2022-12-07T00:53:48;10.27;;;7.03;;
7899;SDS011;3995;50.856;4.404;2022-12-07T00:56:16;7.35;;;6.65;;
7899;SDS011;3995;50.856;4.404;2022-12-07T00:58:49;8.70;;;7.32;;
7899;SDS011;3995;50.856;4.404;2022-12-07T01:01:19;8.68;;;7.35;;
7899;SDS011;3995;50.856;4.404;2022-12-07T01:03:46;6.43;;;5.82;;
7899;SDS011;3995;50.856;4.404;2022-12-07T01:06:15;9.32;;;7.50;;
7899;SDS011;3995;50.856;4.404;2022-12-07T01:08:43;9.32;;;7.05;;
7899;SDS011;3995;50.856;4.404;2022-12-07T01:11:12;8.60;;;7.70;;
7899;SDS011;3995;50.856;4.404;2022-12-07T01:13:40;9.48;;;7.25;;
7899;SDS011;3995;50.856;4.404;2022-12-07T01:16:10;7.47;;;6.78;;
7899;SDS011;3995;50.856;4.404;2022-12-07T01:18:40;9.45;;;7.25;;
7899;SDS011;3995;50.856;4.404;2022-12-07T01:21:11;14.52;;;7.63;;
7899;SDS011;3995;50.856;4.404;2022-12-07T01:23:41;13.90;;;7.88;;
7899;SDS011;3995;50.856;4.404;2022-12-07T01:26:10;8.00;;;7.20;;
7899;SDS011;3995;50.856;4.404;2022-12-07T01:28:39;8.63;;;7.03;;
7899;SDS011;3995;50.856;4.404;2022-12-07T01:31:07;7.65;;;6.95;;
7899;SDS011;3995;50.856;4.404;2022-12-07T01:33:37;11.25;;;7.32;;
7899;SDS011;3995;50.856;4.404;2022-12-07T01:36:07;11.80;;;9.25;;
7899;SDS011;3995;50.856;4.404;2022-12-07T01:38:40;14.13;;;9.95;;
7899;SDS011;3995;50.856;4.404;2022-12-07T01:41:08;9.10;;;8.18;;
7899;SDS011;3995;50.856;4.404;2022-12-07T01:43:36;9.40;;;7.93;;
7899;SDS011;3995;50.856;4.404;2022-12-07T01:46:28;8.27;;;7.07;;
7899;SDS011;3995;50.856;4.404;2022-12-07T01:48:56;7.40;;;6.70;;
7899;SDS011;3995;50.856;4.404;2022-12-07T01:51:25;7.82;;;7.00;;
7899;SDS011;3995;50.856;4.404;2022-12-07T01:53:52;7.95;;;6.80;;
7899;SDS011;3995;50.856;4.404;2022-12-07T01:56:20;8.75;;;6.25;;
7899;SDS011;3995;50.856;4.404;2022-12-07T01:58:52;9.02;;;6.72;;
7899;SDS011;3995;50.856;4.404;2022-12-07T02:01:21;8.68;;;6.15;;
7899;SDS011;3995;50.856;4.404;2022-12-07T02:03:48;7.28;;;6.57;;
7899;SDS011;3995;50.856;4.404;2022-12-07T02:06:19;7.20;;;6.18;;
7899;SDS011;3995;50.856;4.404;2022-12-07T02:08:52;6.65;;;6.00;;
7899;SDS011;3995;50.856;4.404;2022-12-07T02:11:20;6.60;;;5.80;;
7899;SDS011;3995;50.856;4.404;2022-12-07T02:13:47;6.53;;;5.15;;
7899;SDS011;3995;50.856;4.404;2022-12-07T02:16:21;7.75;;;6.40;;
7899;SDS011;3995;50.856;4.404;2022-12-07T02:19:01;7.88;;;6.07;;
7899;SDS011;3995;50.856;4.404;2022-12-07T02:21:48;7.80;;;7.00;;
7899;SDS011;3995;50.856;4.404;2022-12-07T02:24:33;9.10;;;7.22;;
7899;SDS011;3995;50.856;4.404;2022-12-07T02:27:26;6.75;;;6.03;;
7899;SDS011;3995;50.856;4.404;2022-12-07T02:30:09;8.05;;;6.90;;
7899;SDS011;3995;50.856;4.404;2022-12-07T02:32:43;7.78;;;7.03;;
7899;SDS011;3995;50.856;4.404;2022-12-07T02:35:17;8.30;;;7.00;;
7899;SDS011;3995;50.856;4.404;2022-12-07T02:37:52;7.80;;;6.30;;
7899;SDS011;3995;50.856;4.404;2022-12-07T02:40:27;7.70;;;6.88;;
7899;SDS011;3995;50.856;4.404;2022-12-07T02:43:00;6.78;;;6.07;;
7899;SDS011;3995;50.856;4.404;2022-12-07T02:45:35;7.10;;;6.43;;
7899;SDS011;3995;50.856;4.404;2022-12-07T02:48:05;7.75;;;6.70;;
7899;SDS011;3995;50.856;4.404;2022-12-07T02:50:37;6.22;;;5.57;;
7899;SDS011;3995;50.856;4.404;2022-12-07T02:53:04;11.30;;;5.07;;
7899;SDS011;3995;50.856;4.404;2022-12-07T02:55:33;9.18;;;6.25;;
7899;SDS011;3995;50.856;4.404;2022-12-07T02:58:11;8.40;;;6.03;;
7899;SDS011;3995;50.856;4.404;2022-12-07T03:00:52;7.70;;;5.78;;
7899;SDS011;3995;50.856;4.404;2022-12-07T03:03:28;7.57;;;5.50;;
7899;SDS011;3995;50.856;4.404;2022-12-07T03:06:03;7.13;;;5.97;;
7899;SDS011;3995;50.856;4.404;2022-12-07T03:08:49;8.05;;;5.70;;
7899;SDS011;3995;50.856;4.404;2022-12-07T03:11:23;8.70;;;6.05;;
7899;SDS011;3995;50.856;4.404;2022-12-07T03:13:59;8.90;;;6.05;;
7899;SDS011;3995;50.856;4.404;2022-12-07T03:16:33;7.60;;;5.60;;
7899;SDS011;3995;50.856;4.404;2022-12-07T03:19:06;5.95;;;5.32;;
7899;SDS011;3995;50.856;4.404;2022-12-07T03:21:38;6.20;;;4.93;;
7899;SDS011;3995;50.856;4.404;2022-12-07T03:24:09;7.97;;;5.90;;
7899;SDS011;3995;50.856;4.404;2022-12-07T03:26:41;7.85;;;5.70;;
7899;SDS011;3995;50.856;4.404;2022-12-07T03:29:12;7.22;;;5.30;;
7899;SDS011;3995;50.856;4.404;2022-12-07T03:31:45;7.15;;;5.57;;
7899;SDS011;3995;50.856;4.404;2022-12-07T03:34:18;8.80;;;5.85;;
7899;SDS011;3995;50.856;4.404;2022-12-07T03:36:50;7.95;;;5.25;;
7899;SDS011;3995;50.856;4.404;2022-12-07T03:39:22;5.50;;;5.00;;
7899;SDS011;3995;50.856;4.404;2022-12-07T03:41:52;6.10;;;4.80;;
7899;SDS011;3995;50.856;4.404;2022-12-07T03:44:21;5.80;;;5.15;;
7899;SDS011;3995;50.856;4.404;2022-12-07T03:46:52;5.68;;;4.70;;
7899;SDS011;3995;50.856;4.404;2022-12-07T03:49:30;4.72;;;3.95;;
7899;SDS011;3995;50.856;4.404;2022-12-07T03:52:00;6.30;;;4.90;;
7899;SDS011;3995;50.856;4.404;2022-12-07T03:54:34;5.90;;;4.55;;
7899;SDS011;3995;50.856;4.404;2022-12-07T03:57:06;6.05;;;4.63;;
7899;SDS011;3995;50.856;4.404;2022-12-07T03:59:35;4.68;;;4.28;;
7899;SDS011;3995;50.856;4.404;2022-12-07T04:02:07;6.55;;;4.75;;
7899;SDS011;3995;50.856;4.404;2022-12-07T04:04:37;5.63;;;4.60;;
7899;SDS011;3995;50.856;4.404;2022-12-07T04:07:05;5.57;;;4.57;;
7899;SDS011;3995;50.856;4.404;2022-12-07T04:09:31;6.03;;;4.88;;
7899;SDS011;3995;50.856;4.404;2022-12-07T04:11:59;5.47;;;4.97;;
7899;SDS011;3995;50.856;4.404;2022-12-07T04:14:26;6.25;;;5.20;;
7899;SDS011;3995;50.856;4.404;2022-12-07T04:16:55;7.20;;;5.10;;
7899;SDS011;3995;50.856;4.404;2022-12-07T04:19:32;7.57;;;4.68;;
7899;SDS011;3995;50.856;4.404;2022-12-07T04:22:01;5.30;;;4.60;;
7899;SDS011;3995;50.856;4.404;2022-12-07T04:24:30;6.65;;;4.80;;
7899;SDS011;3995;50.856;4.404;2022-12-07T04:26:57;5.28;;;4.72;;
7899;SDS011;3995;50.856;4.404;2022-12-07T04:29:24;6.95;;;4.97;;
7899;SDS011;3995;50.856;4.404;2022-12-07T04:31:52;5.88;;;4.82;;
7899;SDS011;3995;50.856;4.404;2022-12-07T04:34:20;5.07;;;4.45;;
7899;SDS011;3995;50.856;4.404;2022-12-07T04:36:49;5.07;;;4.57;;
7899;SDS011;3995;50.856;4.404;2022-12-07T04:39:18;5.25;;;4.80;;
7899;SDS011;3995;50.856;4.404;2022-12-07T04:41:47;8.90;;;4.97;;
7899;SDS011;3995;50.856;4.404;2022-12-07T04:44:15;6.18;;;5.32;;
7899;SDS011;3995;50.856;4.404;2022-12-07T04:46:43;7.78;;;5.75;;
7899;SDS011;3995;50.856;4.404;2022-12-07T04:49:11;6.90;;;5.70;;
7899;SDS011;3995;50.856;4.404;2022-12-07T04:51:40;8.60;;;5.80;;
7899;SDS011;3995;50.856;4.404;2022-12-07T04:54:09;7.35;;;5.43;;
7899;SDS011;3995;50.856;4.404;2022-12-07T04:56:37;6.70;;;6.00;;
7899;SDS011;3995;50.856;4.404;2022-12-07T04:59:04;8.77;;;6.13;;
7899;SDS011;3995;50.856;4.404;2022-12-07T05:01:33;6.70;;;5.80;;
7899;SDS011;3995;50.856;4.404;2022-12-07T05:04:01;7.97;;;6.05;;
7899;SDS011;3995;50.856;4.404;2022-12-07T05:06:28;7.68;;;5.85;;
7899;SDS011;3995;50.856;4.404;2022-12-07T05:08:55;6.20;;;5.60;;
7899;SDS011;3995;50.856;4.404;2022-12-07T05:11:24;6.55;;;5.93;;
7899;SDS011;3995;50.856;4.404;2022-12-07T05:14:11;8.13;;;6.63;;
7899;SDS011;3995;50.856;4.404;2022-12-07T05:16:39;6.00;;;5.35;;
7899;SDS011;3995;50.856;4.404;2022-12-07T05:19:08;8.38;;;6.20;;
7899;SDS011;3995;50.856;4.404;2022-12-07T05:21:35;8.52;;;6.25;;
7899;SDS011;3995;50.856;4.404;2022-12-07T05:24:03;10.68;;;5.97;;
7899;SDS011;3995;50.856;4.404;2022-12-07T05:26:32;8.07;;;5.85;;
7899;SDS011;3995;50.856;4.404;2022-12-07T05:29:00;6.63;;;5.93;;
7899;SDS011;3995;50.856;4.404;2022-12-07T05:31:27;9.32;;;6.40;;
7899;SDS011;3995;50.856;4.404;2022-12-07T05:33:54;8.30;;;6.13;;
7899;SDS011;3995;50.856;4.404;2022-12-07T05:36:21;6.88;;;5.28;;
7899;SDS011;3995;50.856;4.404;2022-12-07T05:38:49;8.60;;;5.53;;
7899;SDS011;3995;50.856;4.404;2022-12-07T05:41:17;7.90;;;5.05;;
7899;SDS011;3995;50.856;4.404;2022-12-07T05:44:04;8.35;;;5.90;;
7899;SDS011;3995;50.856;4.404;2022-12-07T05:46:32;6.38;;;5.78;;
7899;SDS011;3995;50.856;4.404;2022-12-07T05:48:59;7.75;;;5.20;;
7899;SDS011;3995;50.856;4.404;2022-12-07T05:51:26;7.93;;;5.60;;
7899;SDS011;3995;50.856;4.404;2022-12-07T05:53:54;5.30;;;4.55;;
7899;SDS011;3995;50.856;4.404;2022-12-07T05:56:21;7.60;;;5.80;;
7899;SDS011;3995;50.856;4.404;2022-12-07T05:58:49;7.55;;;5.50;;
7899;SDS011;3995;50.856;4.404;2022-12-07T06:01:35;6.88;;;5.15;;
7899;SDS011;3995;50.856;4.404;2022-12-07T06:04:02;7.43;;;5.40;;
7899;SDS011;3995;50.856;4.404;2022-12-07T06:06:29;7.35;;;5.20;;
7899;SDS011;3995;50.856;4.404;2022-12-07T06:08:57;5.32;;;4.50;;
7899;SDS011;3995;50.856;4.404;2022-12-07T06:11:24;10.45;;;5.28;;
7899;SDS011;3995;50.856;4.404;2022-12-07T06:14:08;7.32;;;5.18;;
7899;SDS011;3995;50.856;4.404;2022-12-07T06:16:37;6.20;;;4.90;;
7899;SDS011;3995;50.856;4.404;2022-12-07T06:19:05;8.35;;;5.82;;
7899;SDS011;3995;50.856;4.404;2022-12-07T06:21:32;6.22;;;4.80;;
7899;SDS011;3995;50.856;4.404;2022-12-07T06:24:00;9.38;;;5.40;;
7899;SDS011;3995;50.856;4.404;2022-12-07T06:26:27;7.10;;;5.55;;
7899;SDS011;3995;50.856;4.404;2022-12-07T06:28:54;10.20;;;5.05;;
7899;SDS011;3995;50.856;4.404;2022-12-07T06:31:22;8.07;;;4.57;;
7899;SDS011;3995;50.856;4.404;2022-12-07T06:33:50;5.82;;;3.97;;
7899;SDS011;3995;50.856;4.404;2022-12-07T06:36:17;7.25;;;5.20;;
7899;SDS011;3995;50.856;4.404;2022-12-07T06:38:44;7.50;;;4.63;;
7899;SDS011;3995;50.856;4.404;2022-12-07T06:41:11;5.30;;;4.25;;
7899;SDS011;3995;50.856;4.404;2022-12-07T06:43:38;5.97;;;4.15;;
7899;SDS011;3995;50.856;4.404;2022-12-07T06:46:07;6.55;;;4.40;;
7899;SDS011;3995;50.856;4.404;2022-12-07T06:48:34;7.00;;;5.25;;
7899;SDS011;3995;50.856;4.404;2022-12-07T06:51:03;6.03;;;4.32;;
7899;SDS011;3995;50.856;4.404;2022-12-07T06:53:31;8.52;;;4.68;;
7899;SDS011;3995;50.856;4.404;2022-12-07T06:55:59;6.30;;;4.55;;
7899;SDS011;3995;50.856;4.404;2022-12-07T06:58:26;10.55;;;4.50;;
7899;SDS011;3995;50.856;4.404;2022-12-07T07:00:53;4.65;;;4.13;;
7899;SDS011;3995;50.856;4.404;2022-12-07T07:03:21;6.00;;;4.30;;
7899;SDS011;3995;50.856;4.404;2022-12-07T07:05:49;6.95;;;4.07;;
7899;SDS011;3995;50.856;4.404;2022-12-07T07:08:20;5.35;;;4.85;;
7899;SDS011;3995;50.856;4.404;2022-12-07T07:10:48;10.98;;;6.45;;
7899;SDS011;3995;50.856;4.404;2022-12-07T07:13:15;5.00;;;4.35;;
7899;SDS011;3995;50.856;4.404;2022-12-07T07:15:42;9.38;;;4.43;;
7899;SDS011;3995;50.856;4.404;2022-12-07T07:18:10;7.00;;;4.63;;
7899;SDS011;3995;50.856;4.404;2022-12-07T07:20:37;9.15;;;4.72;;
7899;SDS011;3995;50.856;4.404;2022-12-07T07:23:05;6.45;;;4.65;;
7899;SDS011;3995;50.856;4.404;2022-12-07T07:25:34;7.05;;;4.45;;
7899;SDS011;3995;50.856;4.404;2022-12-07T07:28:01;6.13;;;4.10;;
7899;SDS011;3995;50.856;4.404;2022-12-07T07:30:29;7.95;;;4.82;;
7899;SDS011;3995;50.856;4.404;2022-12-07T07:32:57;7.85;;;5.03;;
7899;SDS011;3995;50.856;4.404;2022-12-07T07:35:25;16.15;;;5.63;;
7899;SDS011;3995;50.856;4.404;2022-12-07T07:37:52;7.82;;;4.78;;
7899;SDS011;3995;50.856;4.404;2022-12-07T07:40:19;9.55;;;5.07;;
7899;SDS011;3995;50.856;4.404;2022-12-07T07:42:49;6.43;;;4.65;;
7899;SDS011;3995;50.856;4.404;2022-12-07T07:45:18;8.65;;;4.85;;
7899;SDS011;3995;50.856;4.404;2022-12-07T07:47:46;8.45;;;5.18;;
7899;SDS011;3995;50.856;4.404;2022-12-07T07:50:13;7.13;;;4.95;;
7899;SDS011;3995;50.856;4.404;2022-12-07T07:52:41;9.68;;;5.18;;
7899;SDS011;3995;50.856;4.404;2022-12-07T07:55:09;6.93;;;4.25;;
7899;SDS011;3995;50.856;4.404;2022-12-07T07:57:37;6.65;;;4.47;;
7899;SDS011;3995;50.856;4.404;2022-12-07T08:00:08;9.73;;;5.07;;
7899;SDS011;3995;50.856;4.404;2022-12-07T08:02:37;8.27;;;5.90;;
7899;SDS011;3995;50.856;4.404;2022-12-07T08:05:04;7.75;;;5.50;;
7899;SDS011;3995;50.856;4.404;2022-12-07T08:07:32;7.97;;;5.20;;
7899;SDS011;3995;50.856;4.404;2022-12-07T08:09:59;6.75;;;4.85;;
7899;SDS011;3995;50.856;4.404;2022-12-07T08:12:26;9.73;;;4.55;;
7899;SDS011;3995;50.856;4.404;2022-12-07T08:14:54;7.40;;;4.85;;
7899;SDS011;3995;50.856;4.404;2022-12-07T08:17:23;7.88;;;4.57;;
7899;SDS011;3995;50.856;4.404;2022-12-07T08:19:50;7.20;;;4.88;;
7899;SDS011;3995;50.856;4.404;2022-12-07T08:22:17;6.53;;;5.13;;
7899;SDS011;3995;50.856;4.404;2022-12-07T08:24:44;9.73;;;4.10;;
7899;SDS011;3995;50.856;4.404;2022-12-07T08:27:11;12.32;;;4.95;;
7899;SDS011;3995;50.856;4.404;2022-12-07T08:29:39;4.90;;;3.92;;
7899;SDS011;3995;50.856;4.404;2022-12-07T08:32:06;8.75;;;4.50;;
7899;SDS011;3995;50.856;4.404;2022-12-07T08:34:35;6.72;;;4.40;;
7899;SDS011;3995;50.856;4.404;2022-12-07T08:37:02;7.07;;;4.60;;
7899;SDS011;3995;50.856;4.404;2022-12-07T08:39:29;8.60;;;5.10;;
7899;SDS011;3995;50.856;4.404;2022-12-07T08:41:56;7.65;;;4.63;;
7899;SDS011;3995;50.856;4.404;2022-12-07T08:44:24;11.82;;;5.38;;
7899;SDS011;3995;50.856;4.404;2022-12-07T08:46:52;5.93;;;4.82;;
7899;SDS011;3995;50.856;4.404;2022-12-07T08:49:24;6.78;;;4.35;;
7899;SDS011;3995;50.856;4.404;2022-12-07T08:51:55;5.05;;;4.55;;
7899;SDS011;3995;50.856;4.404;2022-12-07T08:54:23;7.63;;;4.70;;
7899;SDS011;3995;50.856;4.404;2022-12-07T08:56:51;9.05;;;5.35;;
7899;SDS011;3995;50.856;4.404;2022-12-07T08:59:20;6.80;;;4.53;;
7899;SDS011;3995;50.856;4.404;2022-12-07T09:01:48;7.32;;;4.57;;
7899;SDS011;3995;50.856;4.404;2022-12-07T09:04:15;6.43;;;5.70;;
7899;SDS011;3995;50.856;4.404;2022-12-07T09:06:43;7.65;;;4.97;;
7899;SDS011;3995;50.856;4.404;2022-12-07T09:09:12;6.82;;;4.72;;
7899;SDS011;3995;50.856;4.404;2022-12-07T09:11:41;6.10;;;4.45;;
7899;SDS011;3995;50.856;4.404;2022-12-07T09:14:10;6.53;;;4.32;;
7899;SDS011;3995;50.856;4.404;2022-12-07T09:16:37;5.75;;;4.20;;
7899;SDS011;3995;50.856;4.404;2022-12-07T09:19:04;6.18;;;4.85;;
7899;SDS011;3995;50.856;4.404;2022-12-07T09:21:32;8.10;;;4.57;;
7899;SDS011;3995;50.856;4.404;2022-12-07T09:23:59;5.82;;;4.00;;
7899;SDS011;3995;50.856;4.404;2022-12-07T09:26:28;8.85;;;4.78;;
7899;SDS011;3995;50.856;4.404;2022-12-07T09:28:56;6.75;;;4.40;;
7899;SDS011;3995;50.856;4.404;2022-12-07T09:31:23;8.77;;;4.72;;
7899;SDS011;3995;50.856;4.404;2022-12-07T09:33:54;4.65;;;3.55;;
7899;SDS011;3995;50.856;4.404;2022-12-07T09:36:21;5.90;;;4.50;;
7899;SDS011;3995;50.856;4.404;2022-12-07T09:38:48;6.15;;;4.07;;
7899;SDS011;3995;50.856;4.404;2022-12-07T09:41:15;5.50;;;4.35;;
7899;SDS011;3995;50.856;4.404;2022-12-07T09:43:45;6.35;;;3.83;;
7899;SDS011;3995;50.856;4.404;2022-12-07T09:46:13;8.15;;;4.18;;
7899;SDS011;3995;50.856;4.404;2022-12-07T09:48:42;8.40;;;3.60;;
7899;SDS011;3995;50.856;4.404;2022-12-07T09:53:41;6.63;;;4.40;;
7899;SDS011;3995;50.856;4.404;2022-12-07T09:56:10;8.27;;;4.90;;
7899;SDS011;3995;50.856;4.404;2022-12-07T09:58:39;8.10;;;4.50;;
7899;SDS011;3995;50.856;4.404;2022-12-07T10:01:11;17.55;;;4.93;;
7899;SDS011;3995;50.856;4.404;2022-12-07T10:03:42;8.48;;;5.00;;
7899;SDS011;3995;50.856;4.404;2022-12-07T10:06:15;9.80;;;5.32;;
7899;SDS011;3995;50.856;4.404;2022-12-07T10:08:42;10.20;;;5.60;;
7899;SDS011;3995;50.856;4.404;2022-12-07T10:11:10;7.57;;;4.38;;
7899;SDS011;3995;50.856;4.404;2022-12-07T10:13:40;7.30;;;5.03;;
7899;SDS011;3995;50.856;4.404;2022-12-07T10:16:25;16.55;;;6.28;;
7899;SDS011;3995;50.856;4.404;2022-12-07T10:19:17;11.95;;;5.45;;
7899;SDS011;3995;50.856;4.404;2022-12-07T10:21:59;9.10;;;5.20;;
7899;SDS011;3995;50.856;4.404;2022-12-07T10:24:28;7.30;;;4.75;;
7899;SDS011;3995;50.856;4.404;2022-12-07T10:26:56;14.38;;;5.88;;
7899;SDS011;3995;50.856;4.404;2022-12-07T10:29:24;8.40;;;5.30;;
7899;SDS011;3995;50.856;4.404;2022-12-07T10:31:58;7.38;;;5.45;;
7899;SDS011;3995;50.856;4.404;2022-12-07T10:34:29;7.57;;;5.28;;
7899;SDS011;3995;50.856;4.404;2022-12-07T10:37:07;8.45;;;4.95;;
7899;SDS011;3995;50.856;4.404;2022-12-07T10:39:42;7.13;;;5.25;;
7899;SDS011;3995;50.856;4.404;2022-12-07T10:42:17;5.70;;;4.75;;
7899;SDS011;3995;50.856;4.404;2022-12-07T10:44:46;7.75;;;4.88;;
7899;SDS011;3995;50.856;4.404;2022-12-07T10:47:21;11.73;;;5.50;;
7899;SDS011;3995;50.856;4.404;2022-12-07T10:53:11;13.07;;;5.30;;
7899;SDS011;3995;50.856;4.404;2022-12-07T10:55:56;10.00;;;5.38;;
7899;SDS011;3995;50.856;4.404;2022-12-07T10:58:51;8.38;;;4.57;;
7899;SDS011;3995;50.856;4.404;2022-12-07T11:01:29;8.38;;;4.88;;
7899;SDS011;3995;50.856;4.404;2022-12-07T11:07:08;9.43;;;3.90;;
7899;SDS011;3995;50.856;4.404;2022-12-07T11:09:44;9.75;;;4.80;;
7899;SDS011;3995;50.856;4.404;2022-12-07T11:12:24;9.93;;;4.28;;
7899;SDS011;3995;50.856;4.404;2022-12-07T11:15:01;7.18;;;4.00;;
7899;SDS011;3995;50.856;4.404;2022-12-07T11:17:36;5.50;;;3.95;;
7899;SDS011;3995;50.856;4.404;2022-12-07T11:20:12;6.75;;;4.20;;
7899;SDS011;3995;50.856;4.404;2022-12-07T11:22:54;6.07;;;4.30;;
7899;SDS011;3995;50.856;4.404;2022-12-07T11:25:30;8.05;;;4.30;;
7899;SDS011;3995;50.856;4.404;2022-12-07T11:28:04;6.43;;;4.35;;
7899;SDS011;3995;50.856;4.404;2022-12-07T11:30:46;11.02;;;3.53;;
7899;SDS011;3995;50.856;4.404;2022-12-07T11:33:22;6.72;;;3.60;;
7899;SDS011;3995;50.856;4.404;2022-12-07T11:36:02;7.30;;;4.05;;
7899;SDS011;3995;50.856;4.404;2022-12-07T11:38:44;8.13;;;4.50;;
7899;SDS011;3995;50.856;4.404;2022-12-07T11:41:17;10.40;;;4.03;;
7899;SDS011;3995;50.856;4.404;2022-12-07T11:43:53;7.80;;;4.47;;
7899;SDS011;3995;50.856;4.404;2022-12-07T11:46:42;8.05;;;3.67;;
7899;SDS011;3995;50.856;4.404;2022-12-07T11:49:15;4.63;;;3.00;;
7899;SDS011;3995;50.856;4.404;2022-12-07T11:51:53;7.65;;;3.33;;
7899;SDS011;3995;50.856;4.404;2022-12-07T11:54:25;4.80;;;3.67;;
7899;SDS011;3995;50.856;4.404;2022-12-07T11:56:56;5.38;;;3.15;;
7899;SDS011;3995;50.856;4.404;2022-12-07T11:59:30;8.95;;;3.70;;
7899;SDS011;3995;50.856;4.404;2022-12-07T12:02:03;5.50;;;3.20;;
7899;SDS011;3995;50.856;4.404;2022-12-07T12:04:44;5.40;;;3.40;;
7899;SDS011;3995;50.856;4.404;2022-12-07T12:07:17;6.10;;;3.42;;
7899;SDS011;3995;50.856;4.404;2022-12-07T12:09:50;6.03;;;3.00;;
7899;SDS011;3995;50.856;4.404;2022-12-07T12:12:28;5.57;;;3.10;;
7899;SDS011;3995;50.856;4.404;2022-12-07T12:15:09;5.30;;;3.00;;
7899;SDS011;3995;50.856;4.404;2022-12-07T12:20:47;6.80;;;3.60;;
7899;SDS011;3995;50.856;4.404;2022-12-07T12:23:19;6.82;;;3.78;;
7899;SDS011;3995;50.856;4.404;2022-12-07T12:25:51;6.70;;;2.95;;
7899;SDS011;3995;50.856;4.404;2022-12-07T12:28:24;4.70;;;3.15;;
7899;SDS011;3995;50.856;4.404;2022-12-07T12:31:05;4.90;;;3.10;;
7899;SDS011;3995;50.856;4.404;2022-12-07T12:33:36;5.63;;;3.20;;
7899;SDS011;3995;50.856;4.404;2022-12-07T12:36:17;5.97;;;3.10;;
7899;SDS011;3995;50.856;4.404;2022-12-07T12:38:51;5.40;;;2.80;;
7899;SDS011;3995;50.856;4.404;2022-12-07T12:50:27;4.60;;;2.40;;
7899;SDS011;3995;50.856;4.404;2022-12-07T12:53:04;3.88;;;2.22;;
7899;SDS011;3995;50.856;4.404;2022-12-07T12:58:46;6.28;;;2.20;;
7899;SDS011;3995;50.856;4.404;2022-12-07T13:10:37;4.60;;;2.13;;
7899;SDS011;3995;50.856;4.404;2022-12-07T13:25:07;3.20;;;2.10;;
7899;SDS011;3995;50.856;4.404;2022-12-07T13:27:35;4.32;;;2.15;;
7899;SDS011;3995;50.856;4.404;2022-12-07T13:30:09;6.53;;;1.80;;
7899;SDS011;3995;50.856;4.404;2022-12-07T13:32:43;4.00;;;2.10;;
7899;SDS011;3995;50.856;4.404;2022-12-07T13:35:32;8.02;;;2.70;;
7899;SDS011;3995;50.856;4.404;2022-12-07T13:38:04;5.05;;;2.78;;
7899;SDS011;3995;50.856;4.404;2022-12-07T13:41:02;5.10;;;2.22;;
7899;SDS011;3995;50.856;4.404;2022-12-07T13:43:31;5.15;;;2.10;;
7899;SDS011;3995;50.856;4.404;2022-12-07T13:46:08;6.35;;;3.38;;
7899;SDS011;3995;50.856;4.404;2022-12-07T13:48:43;7.80;;;2.25;;
7899;SDS011;3995;50.856;4.404;2022-12-07T13:51:20;4.25;;;2.53;;
7899;SDS011;3995;50.856;4.404;2022-12-07T13:53:49;4.00;;;2.13;;
7899;SDS011;3995;50.856;4.404;2022-12-07T13:56:20;5.88;;;2.20;;
7899;SDS011;3995;50.856;4.404;2022-12-07T13:58:48;3.65;;;1.90;;
7899;SDS011;3995;50.856;4.404;2022-12-07T14:01:15;5.25;;;2.20;;
7899;SDS011;3995;50.856;4.404;2022-12-07T14:03:45;4.68;;;2.50;;
7899;SDS011;3995;50.856;4.404;2022-12-07T14:06:17;5.03;;;2.42;;
7899;SDS011;3995;50.856;4.404;2022-12-07T14:09:05;7.03;;;2.30;;
7899;SDS011;3995;50.856;4.404;2022-12-07T14:11:33;8.52;;;2.38;;
7899;SDS011;3995;50.856;4.404;2022-12-07T14:14:01;3.28;;;2.20;;
7899;SDS011;3995;50.856;4.404;2022-12-07T14:16:34;2.90;;;2.00;;
7899;SDS011;3995;50.856;4.404;2022-12-07T14:19:05;5.05;;;1.98;;
7899;SDS011;3995;50.856;4.404;2022-12-07T14:22:15;4.13;;;1.88;;
7899;SDS011;3995;50.856;4.404;2022-12-07T14:24:58;1.88;;;1.42;;
7899;SDS011;3995;50.856;4.404;2022-12-07T14:27:31;2.25;;;1.55;;
7899;SDS011;3995;50.856;4.404;2022-12-07T14:30:01;3.33;;;1.83;;
7899;SDS011;3995;50.856;4.404;2022-12-07T14:32:29;4.90;;;2.10;;
7899;SDS011;3995;50.856;4.404;2022-12-07T14:34:59;2.83;;;1.65;;
7899;SDS011;3995;50.856;4.404;2022-12-07T14:37:28;2.90;;;1.80;;
7899;SDS011;3995;50.856;4.404;2022-12-07T14:39:57;4.63;;;2.00;;
7899;SDS011;3995;50.856;4.404;2022-12-07T14:42:26;2.85;;;2.00;;
7899;SDS011;3995;50.856;4.404;2022-12-07T14:44:55;6.05;;;2.25;;
7899;SDS011;3995;50.856;4.404;2022-12-07T14:47:23;5.63;;;2.60;;
7899;SDS011;3995;50.856;4.404;2022-12-07T14:49:52;2.67;;;1.77;;
7899;SDS011;3995;50.856;4.404;2022-12-07T14:52:21;3.08;;;1.60;;
7899;SDS011;3995;50.856;4.404;2022-12-07T14:54:49;2.88;;;1.80;;
7899;SDS011;3995;50.856;4.404;2022-12-07T14:57:16;5.80;;;3.08;;
7899;SDS011;3995;50.856;4.404;2022-12-07T14:59:44;7.03;;;3.50;;
7899;SDS011;3995;50.856;4.404;2022-12-07T15:02:12;4.65;;;2.25;;
7899;SDS011;3995;50.856;4.404;2022-12-07T15:04:40;3.90;;;2.40;;
7899;SDS011;3995;50.856;4.404;2022-12-07T15:07:09;4.40;;;2.03;;
7899;SDS011;3995;50.856;4.404;2022-12-07T15:09:42;4.20;;;1.98;;
7899;SDS011;3995;50.856;4.404;2022-12-07T15:12:09;6.57;;;2.17;;
7899;SDS011;3995;50.856;4.404;2022-12-07T15:14:37;3.65;;;1.63;;
7899;SDS011;3995;50.856;4.404;2022-12-07T15:17:04;3.30;;;1.85;;
7899;SDS011;3995;50.856;4.404;2022-12-07T15:19:31;2.85;;;2.55;;
7899;SDS011;3995;50.856;4.404;2022-12-07T15:21:59;6.45;;;2.65;;
7899;SDS011;3995;50.856;4.404;2022-12-07T15:24:26;3.80;;;2.30;;
7899;SDS011;3995;50.856;4.404;2022-12-07T15:26:55;3.22;;;2.05;;
7899;SDS011;3995;50.856;4.404;2022-12-07T15:29:22;4.07;;;2.03;;
7899;SDS011;3995;50.856;4.404;2022-12-07T15:31:50;4.78;;;2.80;;
7899;SDS011;3995;50.856;4.404;2022-12-07T15:34:18;6.53;;;2.83;;
7899;SDS011;3995;50.856;4.404;2022-12-07T15:36:45;3.55;;;2.20;;
7899;SDS011;3995;50.856;4.404;2022-12-07T15:39:12;5.55;;;2.88;;
7899;SDS011;3995;50.856;4.404;2022-12-07T15:41:39;4.20;;;2.70;;
7899;SDS011;3995;50.856;4.404;2022-12-07T15:44:09;8.43;;;2.35;;
7899;SDS011;3995;50.856;4.404;2022-12-07T15:46:55;6.13;;;2.42;;
7899;SDS011;3995;50.856;4.404;2022-12-07T15:49:22;3.85;;;2.55;;
7899;SDS011;3995;50.856;4.404;2022-12-07T15:51:49;5.40;;;2.50;;
7899;SDS011;3995;50.856;4.404;2022-12-07T15:54:18;6.22;;;2.30;;
7899;SDS011;3995;50.856;4.404;2022-12-07T15:56:47;2.90;;;2.47;;
7899;SDS011;3995;50.856;4.404;2022-12-07T15:59:16;5.05;;;2.88;;
7899;SDS011;3995;50.856;4.404;2022-12-07T16:01:43;6.25;;;2.75;;
7899;SDS011;3995;50.856;4.404;2022-12-07T16:04:11;5.72;;;2.63;;
7899;SDS011;3995;50.856;4.404;2022-12-07T16:06:38;3.85;;;2.60;;
7899;SDS011;3995;50.856;4.404;2022-12-07T16:09:05;5.05;;;3.00;;
7899;SDS011;3995;50.856;4.404;2022-12-07T16:11:33;7.13;;;2.45;;
7899;SDS011;3995;50.856;4.404;2022-12-07T16:14:00;5.72;;;2.38;;
7899;SDS011;3995;50.856;4.404;2022-12-07T16:16:30;6.70;;;2.92;;
7899;SDS011;3995;50.856;4.404;2022-12-07T16:18:58;3.80;;;3.17;;
7899;SDS011;3995;50.856;4.404;2022-12-07T16:21:26;4.93;;;3.65;;
7899;SDS011;3995;50.856;4.404;2022-12-07T16:23:53;4.78;;;3.83;;